sensor_id;sensor_type;location;lat;lon;timestamp;pressure;altitude;pressure_sealevel;temperature;humidity
61961;BME280;47923;42.506;24.192;2023-07-08T00:01:23;95278.78;;;17.86;74.26
61961;BME280;47923;42.506;24.192;2023-07-08T00:03:49;95577.41;;;20.19;74.31
61961;BME280;47923;42.506;24.192;2023-07-08T00:06:24;95558.16;;;19.99;73.98
61961;BME280;47923;42.506;24.192;2023-07-08T00:08:51;95000.91;;;15.96;73.94
61961;BME280;47923;42.506;24.192;2023-07-08T00:11:16;95091.38;;;16.59;73.58
61961;BME280;47923;42.506;24.192;2023-07-08T00:13:42;95533.63;;;19.65;74.20
61961;BME280;47923;42.506;24.192;2023-07-08T00:16:14;95232.47;;;17.42;74.71
61961;BME280;47923;42.506;24.192;2023-07-08T00:18:40;95209.53;;;16.94;75.51
61961;BME280;47923;42.506;24.192;2023-07-08T00:21:10;95241.81;;;17.40;75.95
61961;BME280;47923;42.506;24.192;2023-07-08T00:23:43;95265.50;;;17.51;76.31
61961;BME280;47923;42.506;24.192;2023-07-08T00:26:15;95441.91;;;18.61;76.88
61961;BME280;47923;42.506;24.192;2023-07-08T00:28:42;95234.41;;;17.03;77.40
61961;BME280;47923;42.506;24.192;2023-07-08T00:31:09;95331.31;;;17.63;77.61
61961;BME280;47923;42.506;24.192;2023-07-08T00:33:36;95278.16;;;16.93;78.21
61961;BME280;47923;42.506;24.192;2023-07-08T00:36:01;95516.06;;;18.74;78.49
61961;BME280;47923;42.506;24.192;2023-07-08T00:38:30;95602.81;;;19.11;78.99
61961;BME280;47923;42.506;24.192;2023-07-08T00:41:06;95590.34;;;19.07;78.97
61961;BME280;47923;42.506;24.192;2023-07-08T00:43:55;95270.34;;;16.98;79.01
61961;BME280;47923;42.506;24.192;2023-07-08T00:51:33;95096.28;;;15.27;79.95
61961;BME280;47923;42.506;24.192;2023-07-08T00:53:59;95588.75;;;18.75;80.73
61961;BME280;47923;42.506;24.192;2023-07-08T00:59:22;95614.88;;;18.80;80.56
61961;BME280;47923;42.506;24.192;2023-07-08T01:01:50;95370.56;;;17.39;79.27
61961;BME280;47923;42.506;24.192;2023-07-08T01:06:58;95236.47;;;16.40;79.52
61961;BME280;47923;42.506;24.192;2023-07-08T01:09:27;95581.69;;;18.77;80.51
61961;BME280;47923;42.506;24.192;2023-07-08T01:11:54;95350.91;;;17.13;80.54
61961;BME280;47923;42.506;24.192;2023-07-08T01:14:24;95586.38;;;18.77;79.93
61961;BME280;47923;42.506;24.192;2023-07-08T01:16:52;95580.97;;;18.73;79.81
61961;BME280;47923;42.506;24.192;2023-07-08T01:19:20;95579.78;;;18.71;79.82
61961;BME280;47923;42.506;24.192;2023-07-08T01:24:26;95371.56;;;17.11;80.21
61961;BME280;47923;42.506;24.192;2023-07-08T01:26:53;95212.19;;;16.01;80.41
61961;BME280;47923;42.506;24.192;2023-07-08T01:29:19;95150.88;;;15.71;80.48
61961;BME280;47923;42.506;24.192;2023-07-08T01:31:45;95501.97;;;18.00;80.66
61961;BME280;47923;42.506;24.192;2023-07-08T01:34:15;95463.50;;;17.77;80.24
61961;BME280;47923;42.506;24.192;2023-07-08T01:36:45;95456.53;;;17.72;80.56
61961;BME280;47923;42.506;24.192;2023-07-08T01:39:14;95595.94;;;18.58;80.87
61961;BME280;47923;42.506;24.192;2023-07-08T01:41:43;95452.28;;;17.64;80.98
61961;BME280;47923;42.506;24.192;2023-07-08T01:44:31;95588.13;;;18.57;81.10
61961;BME280;47923;42.506;24.192;2023-07-08T01:47:09;95583.13;;;18.52;81.44
61961;BME280;47923;42.506;24.192;2023-07-08T01:49:37;95576.88;;;18.47;81.46
61961;BME280;47923;42.506;24.192;2023-07-08T01:52:04;95488.16;;;17.66;81.20
61961;BME280;47923;42.506;24.192;2023-07-08T01:54:30;95589.75;;;18.50;81.11
61961;BME280;47923;42.506;24.192;2023-07-08T01:56:57;95593.28;;;18.51;80.80
61961;BME280;47923;42.506;24.192;2023-07-08T01:59:23;95498.00;;;17.56;81.28
61961;BME280;47923;42.506;24.192;2023-07-08T02:01:49;95596.81;;;18.48;81.38
61961;BME280;47923;42.506;24.192;2023-07-08T02:04:20;95597.59;;;18.48;81.36
61961;BME280;47923;42.506;24.192;2023-07-08T02:06:54;95070.00;;;14.99;80.82
61961;BME280;47923;42.506;24.192;2023-07-08T02:09:20;95245.53;;;16.23;81.07
61961;BME280;47923;42.506;24.192;2023-07-08T02:11:47;95175.31;;;15.86;80.98
61961;BME280;47923;42.506;24.192;2023-07-08T02:14:12;95256.75;;;16.39;80.35
61961;BME280;47923;42.506;24.192;2023-07-08T02:16:38;95182.06;;;15.67;80.59
61961;BME280;47923;42.506;24.192;2023-07-08T02:19:04;95174.66;;;15.60;80.57
61961;BME280;47923;42.506;24.192;2023-07-08T02:21:30;95044.38;;;14.89;80.15
61961;BME280;47923;42.506;24.192;2023-07-08T02:23:56;95174.13;;;15.90;79.82
61961;BME280;47923;42.506;24.192;2023-07-08T02:26:23;95482.28;;;17.75;79.40
61961;BME280;47923;42.506;24.192;2023-07-08T02:28:49;95576.38;;;18.60;79.63
61961;BME280;47923;42.506;24.192;2023-07-08T02:31:14;95575.63;;;18.56;79.92
61961;BME280;47923;42.506;24.192;2023-07-08T02:33:40;95180.44;;;15.77;80.20
61961;BME280;47923;42.506;24.192;2023-07-08T02:36:06;95274.91;;;15.90;80.14
61961;BME280;47923;42.506;24.192;2023-07-08T02:38:32;95271.97;;;16.29;80.15
61961;BME280;47923;42.506;24.192;2023-07-08T02:40:58;95528.00;;;18.15;80.23
61961;BME280;47923;42.506;24.192;2023-07-08T02:43:24;95600.69;;;18.50;80.11
61961;BME280;47923;42.506;24.192;2023-07-08T02:45:50;95597.56;;;18.52;79.76
61961;BME280;47923;42.506;24.192;2023-07-08T02:48:17;95222.72;;;15.99;79.59
61961;BME280;47923;42.506;24.192;2023-07-08T02:50:43;95399.47;;;16.81;79.97
61961;BME280;47923;42.506;24.192;2023-07-08T02:53:09;95091.72;;;15.02;80.01
61961;BME280;47923;42.506;24.192;2023-07-08T02:55:35;95511.53;;;17.78;80.47
61961;BME280;47923;42.506;24.192;2023-07-08T02:58:00;95562.06;;;18.04;80.32
61961;BME280;47923;42.506;24.192;2023-07-08T03:00:26;95624.66;;;18.36;80.43
61961;BME280;47923;42.506;24.192;2023-07-08T03:02:52;95611.44;;;18.31;80.39
61961;BME280;47923;42.506;24.192;2023-07-08T03:05:17;95616.09;;;18.34;80.17
61961;BME280;47923;42.506;24.192;2023-07-08T03:07:43;95271.31;;;16.11;79.83
61961;BME280;47923;42.506;24.192;2023-07-08T03:10:09;95169.81;;;15.12;79.86
61961;BME280;47923;42.506;24.192;2023-07-08T03:12:35;94846.56;;;13.25;79.54
61961;BME280;47923;42.506;24.192;2023-07-08T03:15:01;95547.09;;;17.71;79.87
61961;BME280;47923;42.506;24.192;2023-07-08T03:17:26;95493.72;;;17.55;79.57
61961;BME280;47923;42.506;24.192;2023-07-08T03:19:52;95267.97;;;15.82;79.07
61961;BME280;47923;42.506;24.192;2023-07-08T03:22:18;95647.72;;;18.38;78.89
61961;BME280;47923;42.506;24.192;2023-07-08T03:24:44;95452.34;;;17.01;79.18
61961;BME280;47923;42.506;24.192;2023-07-08T03:27:13;95163.94;;;15.25;78.47
61961;BME280;47923;42.506;24.192;2023-07-08T03:29:40;95496.84;;;17.54;79.03
61961;BME280;47923;42.506;24.192;2023-07-08T03:32:08;95251.72;;;15.64;78.92
61961;BME280;47923;42.506;24.192;2023-07-08T03:34:35;95472.38;;;17.39;79.15
61961;BME280;47923;42.506;24.192;2023-07-08T03:37:01;95072.38;;;14.86;79.03
61961;BME280;47923;42.506;24.192;2023-07-08T03:39:26;95616.00;;;18.44;79.54
61961;BME280;47923;42.506;24.192;2023-07-08T03:41:52;95625.75;;;18.45;79.20
61961;BME280;47923;42.506;24.192;2023-07-08T03:44:18;95615.19;;;18.47;78.84
61961;BME280;47923;42.506;24.192;2023-07-08T03:46:48;95318.47;;;15.97;78.45
61961;BME280;47923;42.506;24.192;2023-07-08T03:49:18;95343.47;;;16.58;78.53
61961;BME280;47923;42.506;24.192;2023-07-08T03:51:50;95178.56;;;15.63;77.39
61961;BME280;47923;42.506;24.192;2023-07-08T03:54:18;95645.88;;;18.73;77.32
61961;BME280;47923;42.506;24.192;2023-07-08T03:56:44;95302.59;;;16.51;76.75
61961;BME280;47923;42.506;24.192;2023-07-08T03:59:10;95482.28;;;17.75;76.92
61961;BME280;47923;42.506;24.192;2023-07-08T04:01:36;94905.03;;;13.54;76.81
61961;BME280;47923;42.506;24.192;2023-07-08T04:04:06;95529.78;;;17.88;77.25
61961;BME280;47923;42.506;24.192;2023-07-08T04:06:31;95536.09;;;17.81;77.60
61961;BME280;47923;42.506;24.192;2023-07-08T04:08:59;95601.75;;;18.19;77.86
61961;BME280;47923;42.506;24.192;2023-07-08T04:11:26;95681.88;;;18.68;77.67
61961;BME280;47923;42.506;24.192;2023-07-08T04:13:51;95663.06;;;18.70;77.78
61961;BME280;47923;42.506;24.192;2023-07-08T04:16:20;95317.47;;;16.43;77.77
61961;BME280;47923;42.506;24.192;2023-07-08T04:18:47;95322.19;;;16.36;77.77
61961;BME280;47923;42.506;24.192;2023-07-08T04:21:16;95668.06;;;18.82;77.51
61961;BME280;47923;42.506;24.192;2023-07-08T04:23:43;95518.78;;;17.95;77.31
61961;BME280;47923;42.506;24.192;2023-07-08T04:26:09;95329.44;;;17.57;74.02
61961;BME280;47923;42.506;24.192;2023-07-08T04:28:35;95645.16;;;19.68;73.40
61961;BME280;47923;42.506;24.192;2023-07-08T04:31:01;95634.84;;;19.45;74.46
61961;BME280;47923;42.506;24.192;2023-07-08T04:33:27;95373.09;;;17.60;74.54
61961;BME280;47923;42.506;24.192;2023-07-08T04:35:53;95654.69;;;19.25;75.05
61961;BME280;47923;42.506;24.192;2023-07-08T04:38:24;95082.38;;;15.80;74.41
61961;BME280;47923;42.506;24.192;2023-07-08T04:40:52;95652.97;;;20.23;71.69
61961;BME280;47923;42.506;24.192;2023-07-08T04:43:19;95639.63;;;21.91;64.76
61961;BME280;47923;42.506;24.192;2023-07-08T04:45:48;95524.41;;;22.87;57.25
61961;BME280;47923;42.506;24.192;2023-07-08T04:48:16;95653.13;;;24.85;52.26
61961;BME280;47923;42.506;24.192;2023-07-08T04:50:43;95650.25;;;25.23;51.15
61961;BME280;47923;42.506;24.192;2023-07-08T04:53:10;95618.63;;;26.39;46.70
61961;BME280;47923;42.506;24.192;2023-07-08T04:55:38;95645.72;;;28.00;43.27
61961;BME280;47923;42.506;24.192;2023-07-08T04:58:05;95653.22;;;29.47;39.66
61961;BME280;47923;42.506;24.192;2023-07-08T05:00:32;95646.72;;;28.30;41.50
61961;BME280;47923;42.506;24.192;2023-07-08T05:02:57;95234.19;;;26.10;40.29
61961;BME280;47923;42.506;24.192;2023-07-08T05:05:23;95653.91;;;28.70;40.79
61961;BME280;47923;42.506;24.192;2023-07-08T05:07:49;95447.09;;;25.77;43.00
61961;BME280;47923;42.506;24.192;2023-07-08T05:10:15;95292.97;;;23.38;47.01
61961;BME280;47923;42.506;24.192;2023-07-08T05:12:42;95653.22;;;25.51;48.53
61961;BME280;47923;42.506;24.192;2023-07-08T05:15:08;95590.22;;;25.55;47.58
61961;BME280;47923;42.506;24.192;2023-07-08T05:17:34;95643.22;;;27.42;43.86
61961;BME280;47923;42.506;24.192;2023-07-08T05:20:00;95554.03;;;26.97;43.10
61961;BME280;47923;42.506;24.192;2023-07-08T05:22:29;95213.31;;;24.28;44.59
61961;BME280;47923;42.506;24.192;2023-07-08T05:24:54;95641.44;;;26.62;44.64
61961;BME280;47923;42.506;24.192;2023-07-08T05:27:23;95641.78;;;27.65;43.27
61961;BME280;47923;42.506;24.192;2023-07-08T05:29:49;95651.94;;;28.61;40.80
61961;BME280;47923;42.506;24.192;2023-07-08T05:32:16;95636.31;;;27.98;41.67
61961;BME280;47923;42.506;24.192;2023-07-08T05:34:43;95403.69;;;25.56;42.70
61961;BME280;47923;42.506;24.192;2023-07-08T05:37:10;95405.56;;;24.66;45.69
61961;BME280;47923;42.506;24.192;2023-07-08T05:39:36;95543.44;;;24.95;47.24
61961;BME280;47923;42.506;24.192;2023-07-08T05:42:02;95430.44;;;23.62;49.09
61961;BME280;47923;42.506;24.192;2023-07-08T05:44:27;95334.69;;;22.77;49.66
61961;BME280;47923;42.506;24.192;2023-07-08T05:46:53;95606.72;;;24.80;49.58
61961;BME280;47923;42.506;24.192;2023-07-08T05:49:18;95215.69;;;23.07;47.49
61961;BME280;47923;42.506;24.192;2023-07-08T05:51:44;95431.41;;;24.50;47.13
61961;BME280;47923;42.506;24.192;2023-07-08T05:54:10;95632.56;;;24.86;49.32
61961;BME280;47923;42.506;24.192;2023-07-08T05:56:36;95317.88;;;21.91;51.52
61961;BME280;47923;42.506;24.192;2023-07-08T05:59:02;95447.53;;;23.06;51.16
61961;BME280;47923;42.506;24.192;2023-07-08T06:01:28;95351.31;;;22.19;52.26
61961;BME280;47923;42.506;24.192;2023-07-08T06:03:54;95354.50;;;21.72;53.81
61961;BME280;47923;42.506;24.192;2023-07-08T06:06:23;95641.25;;;23.61;54.11
61961;BME280;47923;42.506;24.192;2023-07-08T06:08:49;95628.69;;;23.31;55.49
61961;BME280;47923;42.506;24.192;2023-07-08T06:11:14;95657.03;;;23.31;56.08
61961;BME280;47923;42.506;24.192;2023-07-08T06:13:40;95653.94;;;23.42;55.39
61961;BME280;47923;42.506;24.192;2023-07-08T06:16:06;95638.34;;;23.52;55.38
61961;BME280;47923;42.506;24.192;2023-07-08T06:18:31;95642.44;;;23.60;55.28
61961;BME280;47923;42.506;24.192;2023-07-08T06:20:57;95660.97;;;23.59;55.00
61961;BME280;47923;42.506;24.192;2023-07-08T06:23:24;95546.44;;;22.87;54.98
61961;BME280;47923;42.506;24.192;2023-07-08T06:25:49;95699.72;;;23.39;55.11
61961;BME280;47923;42.506;24.192;2023-07-08T06:28:15;95662.00;;;23.36;55.14
61961;BME280;47923;42.506;24.192;2023-07-08T06:30:41;95651.22;;;23.13;56.04
61961;BME280;47923;42.506;24.192;2023-07-08T06:33:07;95315.13;;;20.64;56.19
61961;BME280;47923;42.506;24.192;2023-07-08T06:35:37;94908.94;;;17.97;56.53
61961;BME280;47923;42.506;24.192;2023-07-08T06:38:03;95289.56;;;20.67;55.69
61961;BME280;47923;42.506;24.192;2023-07-08T06:40:31;95673.38;;;23.38;54.92
61961;BME280;47923;42.506;24.192;2023-07-08T06:42:56;95631.31;;;23.22;53.69
61961;BME280;47923;42.506;24.192;2023-07-08T06:45:22;95366.53;;;21.78;51.83
61961;BME280;47923;42.506;24.192;2023-07-08T06:47:48;95676.03;;;24.22;49.75
61961;BME280;47923;42.506;24.192;2023-07-08T06:50:14;95461.97;;;23.10;49.39
61961;BME280;47923;42.506;24.192;2023-07-08T06:52:39;95420.09;;;23.02;49.12
61961;BME280;47923;42.506;24.192;2023-07-08T06:55:08;95683.31;;;24.79;48.60
61961;BME280;47923;42.506;24.192;2023-07-08T06:57:34;95253.47;;;21.76;48.25
61961;BME280;47923;42.506;24.192;2023-07-08T07:00:00;95315.81;;;22.75;47.60
61961;BME280;47923;42.506;24.192;2023-07-08T07:02:26;95623.06;;;25.97;44.53
61961;BME280;47923;42.506;24.192;2023-07-08T07:04:52;95444.47;;;25.33;43.16
61961;BME280;47923;42.506;24.192;2023-07-08T07:07:18;95265.97;;;23.90;42.72
61961;BME280;47923;42.506;24.192;2023-07-08T07:09:43;95656.41;;;30.29;37.08
61961;BME280;47923;42.506;24.192;2023-07-08T07:12:09;95664.22;;;33.31;31.26
61961;BME280;47923;42.506;24.192;2023-07-08T07:14:35;95400.97;;;34.09;27.17
61961;BME280;47923;42.506;24.192;2023-07-08T07:17:01;95400.56;;;34.87;25.53
61961;BME280;47923;42.506;24.192;2023-07-08T07:19:27;95674.00;;;37.66;23.62
61961;BME280;47923;42.506;24.192;2023-07-08T07:21:53;95678.00;;;35.94;25.74
61961;BME280;47923;42.506;24.192;2023-07-08T07:24:19;95487.34;;;34.05;26.19
61961;BME280;47923;42.506;24.192;2023-07-08T07:26:44;95657.28;;;33.91;27.96
61961;BME280;47923;42.506;24.192;2023-07-08T07:29:10;95707.81;;;32.31;30.96
61961;BME280;47923;42.506;24.192;2023-07-08T07:31:36;95695.88;;;33.42;29.58
61961;BME280;47923;42.506;24.192;2023-07-08T07:34:02;95701.13;;;34.78;28.32
61961;BME280;47923;42.506;24.192;2023-07-08T07:36:28;95693.47;;;35.65;26.12
61961;BME280;47923;42.506;24.192;2023-07-08T07:38:54;95540.59;;;36.39;25.01
61961;BME280;47923;42.506;24.192;2023-07-08T07:41:20;95450.78;;;36.85;22.78
61961;BME280;47923;42.506;24.192;2023-07-08T07:43:46;95698.59;;;38.54;22.80
61961;BME280;47923;42.506;24.192;2023-07-08T07:46:12;95486.50;;;36.71;23.17
61961;BME280;47923;42.506;24.192;2023-07-08T07:48:39;95612.63;;;38.55;22.36
61961;BME280;47923;42.506;24.192;2023-07-08T07:51:05;95432.22;;;38.17;21.15
61961;BME280;47923;42.506;24.192;2023-07-08T07:53:31;95711.31;;;39.19;22.09
61961;BME280;47923;42.506;24.192;2023-07-08T07:55:59;95709.78;;;36.79;24.16
61961;BME280;47923;42.506;24.192;2023-07-08T07:58:25;95714.84;;;35.15;27.17
61961;BME280;47923;42.506;24.192;2023-07-08T08:00:51;95393.69;;;33.72;26.46
61961;BME280;47923;42.506;24.192;2023-07-08T08:03:16;95634.34;;;34.54;26.65
61961;BME280;47923;42.506;24.192;2023-07-08T08:05:42;95600.09;;;34.84;26.21
61961;BME280;47923;42.506;24.192;2023-07-08T08:08:08;95725.31;;;35.79;26.44
61961;BME280;47923;42.506;24.192;2023-07-08T08:10:34;95712.09;;;36.80;24.56
61961;BME280;47923;42.506;24.192;2023-07-08T08:13:00;95721.09;;;37.03;24.26
61961;BME280;47923;42.506;24.192;2023-07-08T08:15:26;95700.13;;;36.99;24.08
61961;BME280;47923;42.506;24.192;2023-07-08T08:17:51;95701.31;;;35.78;25.63
61961;BME280;47923;42.506;24.192;2023-07-08T08:20:18;95454.75;;;33.12;26.60
61961;BME280;47923;42.506;24.192;2023-07-08T08:22:45;95711.56;;;34.05;28.14
61961;BME280;47923;42.506;24.192;2023-07-08T08:25:10;95726.31;;;32.49;30.04
61961;BME280;47923;42.506;24.192;2023-07-08T08:27:36;95733.84;;;31.65;31.18
61961;BME280;47923;42.506;24.192;2023-07-08T08:30:02;95734.84;;;30.86;32.12
61961;BME280;47923;42.506;24.192;2023-07-08T08:32:27;95729.03;;;30.40;33.53
61961;BME280;47923;42.506;24.192;2023-07-08T08:34:52;95739.66;;;29.67;34.92
61961;BME280;47923;42.506;24.192;2023-07-08T08:37:18;95502.97;;;27.83;35.37
61961;BME280;47923;42.506;24.192;2023-07-08T08:39:44;95504.59;;;28.23;34.07
61961;BME280;47923;42.506;24.192;2023-07-08T08:42:32;95456.69;;;28.13;33.56
61961;BME280;47923;42.506;24.192;2023-07-08T08:45:00;95729.69;;;32.59;29.69
61961;BME280;47923;42.506;24.192;2023-07-08T08:47:39;95422.69;;;32.91;26.94
61961;BME280;47923;42.506;24.192;2023-07-08T08:52:50;95630.16;;;36.84;22.92
61961;BME280;47923;42.506;24.192;2023-07-08T08:55:17;95722.63;;;36.44;24.66
61961;BME280;47923;42.506;24.192;2023-07-08T08:57:52;95731.47;;;36.90;23.93
61961;BME280;47923;42.506;24.192;2023-07-08T09:03:18;95496.75;;;36.49;22.34
61961;BME280;47923;42.506;24.192;2023-07-08T09:05:45;95715.09;;;39.22;21.35
61961;BME280;47923;42.506;24.192;2023-07-08T09:08:20;95707.00;;;39.92;19.91
61961;BME280;47923;42.506;24.192;2023-07-08T09:11:02;95291.75;;;38.29;19.33
61961;BME280;47923;42.506;24.192;2023-07-08T09:13:37;95683.28;;;40.92;19.68
61961;BME280;47923;42.506;24.192;2023-07-08T09:16:14;95628.00;;;40.99;18.80
61961;BME280;47923;42.506;24.192;2023-07-08T09:18:54;95695.50;;;42.62;18.36
61961;BME280;47923;42.506;24.192;2023-07-08T09:21:30;95604.56;;;41.42;17.88
61961;BME280;47923;42.506;24.192;2023-07-08T09:24:01;95696.09;;;41.94;17.80
61961;BME280;47923;42.506;24.192;2023-07-08T09:26:30;95700.78;;;42.66;17.50
61961;BME280;47923;42.506;24.192;2023-07-08T09:28:58;95701.19;;;43.00;17.04
61961;BME280;47923;42.506;24.192;2023-07-08T09:31:30;95702.53;;;44.18;16.20
61961;BME280;47923;42.506;24.192;2023-07-08T09:36:31;95578.50;;;42.18;17.25
61961;BME280;47923;42.506;24.192;2023-07-08T09:38:56;95649.47;;;44.38;16.11
61961;BME280;47923;42.506;24.192;2023-07-08T09:41:30;95450.59;;;42.31;16.35
61961;BME280;47923;42.506;24.192;2023-07-08T09:46:39;95368.75;;;41.59;16.62
61961;BME280;47923;42.506;24.192;2023-07-08T09:49:15;95682.19;;;44.22;16.33
61961;BME280;47923;42.506;24.192;2023-07-08T09:51:41;95198.50;;;39.83;17.12
61961;BME280;47923;42.506;24.192;2023-07-08T09:54:08;95646.69;;;43.90;16.26
61961;BME280;47923;42.506;24.192;2023-07-08T09:56:33;95669.16;;;42.92;16.71
61961;BME280;47923;42.506;24.192;2023-07-08T09:58:59;95650.78;;;43.01;17.36
61961;BME280;47923;42.506;24.192;2023-07-08T10:01:26;95665.50;;;43.30;17.05
61961;BME280;47923;42.506;24.192;2023-07-08T10:04:00;95380.63;;;42.18;16.79
61961;BME280;47923;42.506;24.192;2023-07-08T10:06:30;95495.22;;;41.69;17.68
61961;BME280;47923;42.506;24.192;2023-07-08T10:09:02;95669.16;;;42.54;18.08
61961;BME280;47923;42.506;24.192;2023-07-08T10:11:36;95656.81;;;42.21;17.87
61961;BME280;47923;42.506;24.192;2023-07-08T10:14:12;95318.50;;;39.04;18.93
61961;BME280;47923;42.506;24.192;2023-07-08T10:16:42;95455.06;;;41.27;17.70
61961;BME280;47923;42.506;24.192;2023-07-08T10:19:13;95665.16;;;44.72;16.84
61961;BME280;47923;42.506;24.192;2023-07-08T10:21:55;95655.63;;;44.52;15.69
61961;BME280;47923;42.506;24.192;2023-07-08T10:24:47;95661.47;;;45.73;15.39
61961;BME280;47923;42.506;24.192;2023-07-08T10:27:40;95651.50;;;46.09;15.09
61961;BME280;47923;42.506;24.192;2023-07-08T10:30:22;95648.34;;;44.83;15.28
61961;BME280;47923;42.506;24.192;2023-07-08T10:35:44;95637.53;;;42.35;17.58
61961;BME280;47923;42.506;24.192;2023-07-08T10:41:17;95146.59;;;36.05;21.68
61961;BME280;47923;42.506;24.192;2023-07-08T10:54:35;95593.81;;;33.77;27.64
61961;BME280;47923;42.506;24.192;2023-07-08T10:57:51;95609.88;;;34.38;27.20
61961;BME280;47923;42.506;24.192;2023-07-08T11:03:47;95619.31;;;33.79;28.67
61961;BME280;47923;42.506;24.192;2023-07-08T11:06:20;95634.09;;;33.79;27.82
61961;BME280;47923;42.506;24.192;2023-07-08T11:08:55;95604.22;;;33.43;27.86
61961;BME280;47923;42.506;24.192;2023-07-08T11:11:45;95580.91;;;32.92;27.32
61961;BME280;47923;42.506;24.192;2023-07-08T11:19:23;95482.34;;;32.11;28.67
61961;BME280;47923;42.506;24.192;2023-07-08T11:21:52;95560.56;;;32.91;28.69
61961;BME280;47923;42.506;24.192;2023-07-08T11:24:33;95616.72;;;33.59;28.20
61961;BME280;47923;42.506;24.192;2023-07-08T11:29:42;95251.56;;;31.71;27.41
61961;BME280;47923;42.506;24.192;2023-07-08T11:32:14;95349.59;;;32.33;27.17
61961;BME280;47923;42.506;24.192;2023-07-08T11:34:43;95496.50;;;33.21;27.61
61961;BME280;47923;42.506;24.192;2023-07-08T11:37:11;95606.81;;;33.69;27.88
61961;BME280;47923;42.506;24.192;2023-07-08T11:39:43;95617.75;;;33.61;28.10
61961;BME280;47923;42.506;24.192;2023-07-08T11:42:22;95591.50;;;33.53;28.18
61961;BME280;47923;42.506;24.192;2023-07-08T11:44:56;95354.91;;;31.77;28.03
61961;BME280;47923;42.506;24.192;2023-07-08T11:47:40;95603.38;;;33.25;28.15
61961;BME280;47923;42.506;24.192;2023-07-08T11:50:59;95585.09;;;32.70;28.59
61961;BME280;47923;42.506;24.192;2023-07-08T11:53:07;95596.06;;;32.80;28.96
61961;BME280;47923;42.506;24.192;2023-07-08T11:55:47;95586.72;;;32.03;29.03
61961;BME280;47923;42.506;24.192;2023-07-08T11:58:26;95539.75;;;31.49;30.28
61961;BME280;47923;42.506;24.192;2023-07-08T12:01:04;95592.69;;;31.64;31.23
61961;BME280;47923;42.506;24.192;2023-07-08T12:03:39;95591.72;;;31.21;32.06
61961;BME280;47923;42.506;24.192;2023-07-08T12:08:52;95580.44;;;31.09;32.78
61961;BME280;47923;42.506;24.192;2023-07-08T12:11:19;95580.44;;;31.09;32.87
61961;BME280;47923;42.506;24.192;2023-07-08T12:13:58;95380.00;;;29.49;32.83
61961;BME280;47923;42.506;24.192;2023-07-08T12:16:24;95062.81;;;27.62;32.86
61961;BME280;47923;42.506;24.192;2023-07-08T12:18:50;95505.75;;;30.52;32.11
61961;BME280;47923;42.506;24.192;2023-07-08T12:21:18;95587.47;;;30.79;32.21
61961;BME280;47923;42.506;24.192;2023-07-08T12:23:45;95596.81;;;30.61;32.81
61961;BME280;47923;42.506;24.192;2023-07-08T12:26:11;95596.81;;;30.41;33.38
61961;BME280;47923;42.506;24.192;2023-07-08T12:28:38;95236.22;;;27.81;34.42
61961;BME280;47923;42.506;24.192;2023-07-08T12:31:14;95381.53;;;29.00;34.38
61961;BME280;47923;42.506;24.192;2023-07-08T12:33:40;95602.81;;;30.54;33.71
61961;BME280;47923;42.506;24.192;2023-07-08T12:36:09;95602.38;;;30.41;34.68
61961;BME280;47923;42.506;24.192;2023-07-08T12:38:38;95599.84;;;30.08;34.89
61961;BME280;47923;42.506;24.192;2023-07-08T12:41:21;95322.94;;;28.29;34.49
61961;BME280;47923;42.506;24.192;2023-07-08T12:43:47;95599.59;;;29.91;35.51
61961;BME280;47923;42.506;24.192;2023-07-08T12:46:15;95284.25;;;27.72;35.83
61961;BME280;47923;42.506;24.192;2023-07-08T12:48:41;95600.94;;;29.66;35.57
61961;BME280;47923;42.506;24.192;2023-07-08T12:51:13;95612.94;;;29.57;35.10
61961;BME280;47923;42.506;24.192;2023-07-08T12:53:40;95574.72;;;29.58;34.65
61961;BME280;47923;42.506;24.192;2023-07-08T12:56:06;95375.06;;;28.34;32.63
61961;BME280;47923;42.506;24.192;2023-07-08T12:58:34;95614.66;;;30.14;31.49
61961;BME280;47923;42.506;24.192;2023-07-08T13:01:02;95161.75;;;27.02;30.78
61961;BME280;47923;42.506;24.192;2023-07-08T13:03:34;95614.31;;;30.62;30.01
61961;BME280;47923;42.506;24.192;2023-07-08T13:06:02;95623.22;;;30.80;30.74
61961;BME280;47923;42.506;24.192;2023-07-08T13:08:35;95613.16;;;31.09;30.91
61961;BME280;47923;42.506;24.192;2023-07-08T13:11:03;95356.41;;;29.09;29.64
61961;BME280;47923;42.506;24.192;2023-07-08T13:13:38;95275.00;;;28.79;30.35
61961;BME280;47923;42.506;24.192;2023-07-08T13:16:05;95326.88;;;28.82;30.37
61961;BME280;47923;42.506;24.192;2023-07-08T13:18:36;95601.75;;;30.02;31.38
61961;BME280;47923;42.506;24.192;2023-07-08T13:21:03;95619.97;;;30.32;31.45
61961;BME280;47923;42.506;24.192;2023-07-08T13:23:30;95633.81;;;30.62;30.72
61961;BME280;47923;42.506;24.192;2023-07-08T13:25:56;95629.81;;;30.83;30.85
61961;BME280;47923;42.506;24.192;2023-07-08T13:28:29;95609.84;;;30.49;30.98
61961;BME280;47923;42.506;24.192;2023-07-08T13:30:59;95615.22;;;29.88;31.71
61961;BME280;47923;42.506;24.192;2023-07-08T13:33:33;95512.53;;;29.02;32.15
61961;BME280;47923;42.506;24.192;2023-07-08T13:36:02;95623.50;;;29.83;32.42
61961;BME280;47923;42.506;24.192;2023-07-08T13:38:34;95305.53;;;27.66;32.64
61961;BME280;47923;42.506;24.192;2023-07-08T13:41:05;95620.22;;;30.14;32.96
61961;BME280;47923;42.506;24.192;2023-07-08T13:43:35;95384.56;;;27.80;34.38
61961;BME280;47923;42.506;24.192;2023-07-08T13:46:02;95280.53;;;26.61;35.08
61961;BME280;47923;42.506;24.192;2023-07-08T13:48:38;95637.81;;;28.74;35.56
61961;BME280;47923;42.506;24.192;2023-07-08T13:51:22;95635.09;;;28.89;35.38
61961;BME280;47923;42.506;24.192;2023-07-08T13:53:53;95350.84;;;26.64;35.21